sensor_id;sensor_type;location;lat;lon;timestamp;pressure;altitude;pressure_sealevel;temperature;humidity
7962;BME280;4026;43.652;24.906;2023-03-21T00:01:15;99058.81;;;11.75;80.63
7962;BME280;4026;43.652;24.906;2023-03-21T00:03:42;99051.25;;;11.73;80.74
7962;BME280;4026;43.652;24.906;2023-03-21T00:06:12;99054.41;;;11.77;80.84
7962;BME280;4026;43.652;24.906;2023-03-21T00:08:41;99049.84;;;11.81;80.75
7962;BME280;4026;43.652;24.906;2023-03-21T00:11:10;99049.75;;;11.71;81.60
7962;BME280;4026;43.652;24.906;2023-03-21T00:13:37;99046.50;;;11.69;80.89
7962;BME280;4026;43.652;24.906;2023-03-21T00:16:08;99043.34;;;11.76;80.37
7962;BME280;4026;43.652;24.906;2023-03-21T00:18:40;99041.59;;;11.77;80.05
7962;BME280;4026;43.652;24.906;2023-03-21T00:21:07;99044.63;;;11.71;80.60
7962;BME280;4026;43.652;24.906;2023-03-21T00:23:35;99040.06;;;11.74;80.11
7962;BME280;4026;43.652;24.906;2023-03-21T00:26:04;99030.44;;;11.67;80.54
7962;BME280;4026;43.652;24.906;2023-03-21T00:28:31;99030.22;;;11.70;79.85
7962;BME280;4026;43.652;24.906;2023-03-21T00:30:58;99031.47;;;11.75;79.89
7962;BME280;4026;43.652;24.906;2023-03-21T00:33:26;99033.41;;;11.83;79.62
7962;BME280;4026;43.652;24.906;2023-03-21T00:35:53;99038.31;;;11.75;80.18
7962;BME280;4026;43.652;24.906;2023-03-21T00:38:21;99033.44;;;11.72;80.38
7962;BME280;4026;43.652;24.906;2023-03-21T00:40:48;99031.13;;;11.69;79.79
7962;BME280;4026;43.652;24.906;2023-03-21T00:43:16;99029.75;;;11.65;79.60
7962;BME280;4026;43.652;24.906;2023-03-21T00:45:48;99031.81;;;11.71;79.39
7962;BME280;4026;43.652;24.906;2023-03-21T00:48:16;99035.91;;;11.73;79.03
7962;BME280;4026;43.652;24.906;2023-03-21T00:50:44;99028.13;;;11.64;79.58
7962;BME280;4026;43.652;24.906;2023-03-21T00:53:11;99017.88;;;11.64;78.95
7962;BME280;4026;43.652;24.906;2023-03-21T00:55:39;99020.19;;;11.67;79.25
7962;BME280;4026;43.652;24.906;2023-03-21T00:58:06;99022.75;;;11.67;78.78
7962;BME280;4026;43.652;24.906;2023-03-21T01:00:34;99017.03;;;11.63;78.99
7962;BME280;4026;43.652;24.906;2023-03-21T01:03:02;99020.88;;;11.69;78.53
7962;BME280;4026;43.652;24.906;2023-03-21T01:05:34;99019.03;;;11.71;78.31
7962;BME280;4026;43.652;24.906;2023-03-21T01:08:19;99017.41;;;11.70;78.49
7962;BME280;4026;43.652;24.906;2023-03-21T01:10:49;99014.13;;;11.68;78.27
7962;BME280;4026;43.652;24.906;2023-03-21T01:13:21;99009.25;;;11.65;78.82
7962;BME280;4026;43.652;24.906;2023-03-21T01:15:53;99005.31;;;11.61;78.38
7962;BME280;4026;43.652;24.906;2023-03-21T01:18:22;99006.22;;;11.60;78.54
7962;BME280;4026;43.652;24.906;2023-03-21T01:20:52;99004.13;;;11.65;78.38
7962;BME280;4026;43.652;24.906;2023-03-21T01:23:19;99011.59;;;11.56;78.67
7962;BME280;4026;43.652;24.906;2023-03-21T01:25:46;99001.75;;;11.41;79.35
7962;BME280;4026;43.652;24.906;2023-03-21T01:28:14;99001.13;;;11.37;79.27
7962;BME280;4026;43.652;24.906;2023-03-21T01:30:44;98986.94;;;11.44;79.01
7962;BME280;4026;43.652;24.906;2023-03-21T01:33:13;98994.84;;;11.52;79.65
7962;BME280;4026;43.652;24.906;2023-03-21T01:35:40;98992.66;;;11.37;79.95
7962;BME280;4026;43.652;24.906;2023-03-21T01:38:08;98986.72;;;11.36;79.60
7962;BME280;4026;43.652;24.906;2023-03-21T01:40:35;98984.41;;;11.33;79.69
7962;BME280;4026;43.652;24.906;2023-03-21T01:43:03;98984.41;;;11.33;79.52
7962;BME280;4026;43.652;24.906;2023-03-21T01:48:50;98986.84;;;11.35;79.33
7962;BME280;4026;43.652;24.906;2023-03-21T01:51:18;98989.28;;;11.36;78.86
7962;BME280;4026;43.652;24.906;2023-03-21T01:53:46;98989.97;;;11.38;79.08
7962;BME280;4026;43.652;24.906;2023-03-21T01:56:17;98983.59;;;11.44;79.14
7962;BME280;4026;43.652;24.906;2023-03-21T01:58:46;98986.13;;;11.44;78.97
7962;BME280;4026;43.652;24.906;2023-03-21T02:01:13;98985.66;;;11.39;79.50
7962;BME280;4026;43.652;24.906;2023-03-21T02:03:43;98979.97;;;11.46;79.62
7962;BME280;4026;43.652;24.906;2023-03-21T02:06:21;98979.50;;;11.52;79.92
7962;BME280;4026;43.652;24.906;2023-03-21T02:08:55;98982.97;;;11.40;80.70
7962;BME280;4026;43.652;24.906;2023-03-21T02:11:23;98980.91;;;11.34;80.52
7962;BME280;4026;43.652;24.906;2023-03-21T02:13:51;98981.38;;;11.28;80.29
7962;BME280;4026;43.652;24.906;2023-03-21T02:16:27;98973.22;;;11.34;80.54
7962;BME280;4026;43.652;24.906;2023-03-21T02:19:01;98980.41;;;11.40;79.93
7962;BME280;4026;43.652;24.906;2023-03-21T02:22:06;98984.84;;;11.49;80.78
7962;BME280;4026;43.652;24.906;2023-03-21T02:27:45;98986.47;;;11.50;80.28
7962;BME280;4026;43.652;24.906;2023-03-21T02:31:04;99000.53;;;11.56;80.13
7962;BME280;4026;43.652;24.906;2023-03-21T02:37:01;98994.84;;;11.52;79.73
7962;BME280;4026;43.652;24.906;2023-03-21T02:39:40;99012.16;;;11.60;79.71
7962;BME280;4026;43.652;24.906;2023-03-21T02:42:14;99012.31;;;11.47;80.54
7962;BME280;4026;43.652;24.906;2023-03-21T02:44:44;99010.81;;;11.33;81.25
7962;BME280;4026;43.652;24.906;2023-03-21T02:47:16;99016.06;;;11.21;81.95
7962;BME280;4026;43.652;24.906;2023-03-21T02:49:49;99019.41;;;11.10;82.96
7962;BME280;4026;43.652;24.906;2023-03-21T02:52:24;99023.16;;;11.17;83.65
7962;BME280;4026;43.652;24.906;2023-03-21T02:54:54;99019.09;;;11.26;82.94
7962;BME280;4026;43.652;24.906;2023-03-21T02:57:22;99022.56;;;11.25;83.48
7962;BME280;4026;43.652;24.906;2023-03-21T02:59:50;99008.84;;;11.15;85.58
7962;BME280;4026;43.652;24.906;2023-03-21T03:02:22;99012.53;;;11.10;85.80
7962;BME280;4026;43.652;24.906;2023-03-21T03:04:50;98997.91;;;11.13;84.71
7962;BME280;4026;43.652;24.906;2023-03-21T03:07:30;99004.16;;;11.31;83.67
7962;BME280;4026;43.652;24.906;2023-03-21T03:10:14;99001.59;;;11.31;83.14
7962;BME280;4026;43.652;24.906;2023-03-21T03:12:48;99002.31;;;11.33;82.87
7962;BME280;4026;43.652;24.906;2023-03-21T03:15:23;99002.09;;;11.25;83.50
7962;BME280;4026;43.652;24.906;2023-03-21T03:17:59;98997.19;;;11.33;83.83
7962;BME280;4026;43.652;24.906;2023-03-21T03:20:34;98997.91;;;11.13;85.13
7962;BME280;4026;43.652;24.906;2023-03-21T03:23:15;98991.16;;;11.12;85.44
7962;BME280;4026;43.652;24.906;2023-03-21T03:25:48;98993.25;;;11.06;85.72
7962;BME280;4026;43.652;24.906;2023-03-21T03:28:20;98994.75;;;10.98;86.00
7962;BME280;4026;43.652;24.906;2023-03-21T03:30:50;98998.25;;;10.97;87.22
7962;BME280;4026;43.652;24.906;2023-03-21T03:33:18;99004.28;;;10.96;87.79
7962;BME280;4026;43.652;24.906;2023-03-21T03:35:48;99003.22;;;10.87;88.77
7962;BME280;4026;43.652;24.906;2023-03-21T03:38:19;98995.31;;;10.90;88.14
7962;BME280;4026;43.652;24.906;2023-03-21T03:40:48;98986.72;;;10.80;88.71
7962;BME280;4026;43.652;24.906;2023-03-21T03:43:21;98982.06;;;10.74;89.88
7962;BME280;4026;43.652;24.906;2023-03-21T03:45:53;98993.69;;;10.78;89.68
7962;BME280;4026;43.652;24.906;2023-03-21T03:48:23;98987.78;;;10.77;89.88
7962;BME280;4026;43.652;24.906;2023-03-21T03:50:54;98985.53;;;10.61;90.69
7962;BME280;4026;43.652;24.906;2023-03-21T03:53:29;98984.31;;;10.43;92.01
7962;BME280;4026;43.652;24.906;2023-03-21T03:56:03;98985.97;;;10.20;94.17
7962;BME280;4026;43.652;24.906;2023-03-21T03:58:31;98991.09;;;9.96;96.61
7962;BME280;4026;43.652;24.906;2023-03-21T04:00:58;98992.63;;;9.74;99.76
7962;BME280;4026;43.652;24.906;2023-03-21T04:03:25;98992.94;;;9.94;98.42
7962;BME280;4026;43.652;24.906;2023-03-21T04:05:52;98993.16;;;9.91;98.97
7962;BME280;4026;43.652;24.906;2023-03-21T04:08:19;98986.44;;;9.90;100.00
7962;BME280;4026;43.652;24.906;2023-03-21T04:10:49;98993.88;;;9.93;99.56
7962;BME280;4026;43.652;24.906;2023-03-21T04:13:16;98984.25;;;9.72;100.00
7962;BME280;4026;43.652;24.906;2023-03-21T04:15:43;98993.69;;;9.59;100.00
7962;BME280;4026;43.652;24.906;2023-03-21T04:18:10;98999.50;;;9.61;100.00
7962;BME280;4026;43.652;24.906;2023-03-21T04:20:38;99013.28;;;9.59;100.00
7962;BME280;4026;43.652;24.906;2023-03-21T04:23:05;99004.53;;;9.50;100.00
7962;BME280;4026;43.652;24.906;2023-03-21T04:25:32;99014.44;;;9.42;100.00
7962;BME280;4026;43.652;24.906;2023-03-21T04:28:01;99010.56;;;9.49;100.00
7962;BME280;4026;43.652;24.906;2023-03-21T04:30:28;99021.28;;;9.54;100.00
7962;BME280;4026;43.652;24.906;2023-03-21T04:32:58;99009.69;;;9.37;100.00
7962;BME280;4026;43.652;24.906;2023-03-21T04:35:25;99012.53;;;9.33;100.00
7962;BME280;4026;43.652;24.906;2023-03-21T04:37:53;99023.75;;;9.43;100.00
7962;BME280;4026;43.652;24.906;2023-03-21T04:40:19;99018.66;;;9.43;100.00
7962;BME280;4026;43.652;24.906;2023-03-21T04:42:47;99025.97;;;9.47;100.00
7962;BME280;4026;43.652;24.906;2023-03-21T04:45:16;99019.63;;;9.53;100.00
7962;BME280;4026;43.652;24.906;2023-03-21T04:47:43;99027.41;;;9.51;100.00
7962;BME280;4026;43.652;24.906;2023-03-21T04:50:10;99025.66;;;9.52;100.00
7962;BME280;4026;43.652;24.906;2023-03-21T04:52:38;99026.78;;;9.48;100.00
7962;BME280;4026;43.652;24.906;2023-03-21T04:55:06;99027.22;;;9.42;100.00
7962;BME280;4026;43.652;24.906;2023-03-21T04:57:35;99020.47;;;9.41;100.00
7962;BME280;4026;43.652;24.906;2023-03-21T05:00:03;99022.53;;;9.36;99.92
7962;BME280;4026;43.652;24.906;2023-03-21T05:02:33;99026.22;;;9.32;100.00
7962;BME280;4026;43.652;24.906;2023-03-21T05:05:00;99026.22;;;9.32;100.00
7962;BME280;4026;43.652;24.906;2023-03-21T05:07:27;99028.22;;;9.52;99.40
7962;BME280;4026;43.652;24.906;2023-03-21T05:09:55;99020.91;;;9.71;98.72
7962;BME280;4026;43.652;24.906;2023-03-21T05:12:22;99023.72;;;9.56;98.84
7962;BME280;4026;43.652;24.906;2023-03-21T05:14:49;99009.47;;;9.27;100.00
7962;BME280;4026;43.652;24.906;2023-03-21T05:17:16;99016.69;;;9.46;100.00
7962;BME280;4026;43.652;24.906;2023-03-21T05:19:49;99010.91;;;9.68;99.93
7962;BME280;4026;43.652;24.906;2023-03-21T05:22:17;99001.63;;;9.91;99.92
7962;BME280;4026;43.652;24.906;2023-03-21T05:24:45;99010.88;;;10.05;98.05
7962;BME280;4026;43.652;24.906;2023-03-21T05:27:15;99016.13;;;10.28;97.24
7962;BME280;4026;43.652;24.906;2023-03-21T05:29:58;99020.09;;;10.43;95.29
7962;BME280;4026;43.652;24.906;2023-03-21T05:32:25;99026.66;;;10.58;94.47
7962;BME280;4026;43.652;24.906;2023-03-21T05:34:53;99030.97;;;10.58;95.93
7962;BME280;4026;43.652;24.906;2023-03-21T05:37:20;99025.38;;;10.64;95.71
7962;BME280;4026;43.652;24.906;2023-03-21T05:39:47;99041.00;;;10.72;96.21
7962;BME280;4026;43.652;24.906;2023-03-21T05:42:14;99041.38;;;11.01;94.19
7962;BME280;4026;43.652;24.906;2023-03-21T05:44:43;99033.50;;;11.38;92.20
7962;BME280;4026;43.652;24.906;2023-03-21T05:47:10;99043.59;;;11.73;91.23
7962;BME280;4026;43.652;24.906;2023-03-21T05:49:37;99052.59;;;12.11;89.40
7962;BME280;4026;43.652;24.906;2023-03-21T05:52:06;99057.72;;;12.43;85.72
7962;BME280;4026;43.652;24.906;2023-03-21T05:54:33;99054.13;;;12.67;84.16
7962;BME280;4026;43.652;24.906;2023-03-21T05:57:00;99062.38;;;12.91;83.67
7962;BME280;4026;43.652;24.906;2023-03-21T05:59:27;99068.00;;;13.27;83.54
7962;BME280;4026;43.652;24.906;2023-03-21T06:01:54;99065.38;;;13.48;81.92
7962;BME280;4026;43.652;24.906;2023-03-21T06:04:21;99064.38;;;13.70;81.32
7962;BME280;4026;43.652;24.906;2023-03-21T06:06:47;99064.94;;;13.84;79.55
7962;BME280;4026;43.652;24.906;2023-03-21T06:09:17;99055.75;;;14.00;79.27
7962;BME280;4026;43.652;24.906;2023-03-21T06:11:46;99061.47;;;14.23;78.67
7962;BME280;4026;43.652;24.906;2023-03-21T06:14:14;99066.63;;;14.43;75.90
7962;BME280;4026;43.652;24.906;2023-03-21T06:16:41;99064.19;;;14.41;75.65
7962;BME280;4026;43.652;24.906;2023-03-21T06:19:08;99056.34;;;14.14;74.91
7962;BME280;4026;43.652;24.906;2023-03-21T06:21:35;99059.13;;;14.01;76.47
7962;BME280;4026;43.652;24.906;2023-03-21T06:24:02;99057.38;;;13.92;75.10
7962;BME280;4026;43.652;24.906;2023-03-21T06:26:30;99040.59;;;13.97;78.94
7962;BME280;4026;43.652;24.906;2023-03-21T06:28:57;99037.63;;;14.02;76.23
7962;BME280;4026;43.652;24.906;2023-03-21T06:31:25;99033.31;;;14.22;78.08
7962;BME280;4026;43.652;24.906;2023-03-21T06:33:52;99040.75;;;14.54;72.73
7962;BME280;4026;43.652;24.906;2023-03-21T06:36:19;99036.84;;;14.69;71.83
7962;BME280;4026;43.652;24.906;2023-03-21T06:38:46;99043.03;;;14.77;71.56
7962;BME280;4026;43.652;24.906;2023-03-21T06:41:14;99040.19;;;14.80;72.22
7962;BME280;4026;43.652;24.906;2023-03-21T06:43:42;99043.72;;;14.79;71.05
7962;BME280;4026;43.652;24.906;2023-03-21T06:46:09;99043.03;;;14.77;71.20
7962;BME280;4026;43.652;24.906;2023-03-21T06:48:36;99044.66;;;14.48;69.98
7962;BME280;4026;43.652;24.906;2023-03-21T06:51:09;99045.91;;;14.74;69.25
7962;BME280;4026;43.652;24.906;2023-03-21T06:53:37;99036.00;;;15.53;66.24
7962;BME280;4026;43.652;24.906;2023-03-21T06:56:06;99037.50;;;16.19;62.75
7962;BME280;4026;43.652;24.906;2023-03-21T06:58:33;99036.66;;;16.55;59.99
7962;BME280;4026;43.652;24.906;2023-03-21T07:01:02;99031.38;;;16.82;58.74
7962;BME280;4026;43.652;24.906;2023-03-21T07:03:30;99026.13;;;16.74;61.95
7962;BME280;4026;43.652;24.906;2023-03-21T07:05:57;99028.81;;;16.82;60.51
7962;BME280;4026;43.652;24.906;2023-03-21T07:08:24;99031.56;;;17.15;59.56
7962;BME280;4026;43.652;24.906;2023-03-21T07:10:55;99031.97;;;17.36;58.61
7962;BME280;4026;43.652;24.906;2023-03-21T07:13:22;99035.25;;;17.47;59.94
7962;BME280;4026;43.652;24.906;2023-03-21T07:15:51;99033.34;;;17.57;57.22
7962;BME280;4026;43.652;24.906;2023-03-21T07:18:20;99032.41;;;17.66;56.92
7962;BME280;4026;43.652;24.906;2023-03-21T07:20:48;99047.56;;;17.53;56.43
7962;BME280;4026;43.652;24.906;2023-03-21T07:23:17;99051.84;;;17.36;55.78
7962;BME280;4026;43.652;24.906;2023-03-21T07:25:43;99050.00;;;17.20;57.21
7962;BME280;4026;43.652;24.906;2023-03-21T07:28:10;99051.47;;;16.70;56.81
7962;BME280;4026;43.652;24.906;2023-03-21T07:30:37;99050.53;;;16.97;57.81
7962;BME280;4026;43.652;24.906;2023-03-21T07:33:04;99042.69;;;17.50;58.02
7962;BME280;4026;43.652;24.906;2023-03-21T07:35:33;99048.59;;;17.76;58.05
7962;BME280;4026;43.652;24.906;2023-03-21T07:38:01;99045.16;;;18.35;57.65
7962;BME280;4026;43.652;24.906;2023-03-21T07:40:28;99043.38;;;18.68;55.21
7962;BME280;4026;43.652;24.906;2023-03-21T07:42:55;99039.38;;;19.21;52.78
7962;BME280;4026;43.652;24.906;2023-03-21T07:45:22;99046.00;;;19.23;51.20
7962;BME280;4026;43.652;24.906;2023-03-21T07:47:51;99037.72;;;19.28;51.80
7962;BME280;4026;43.652;24.906;2023-03-21T07:50:18;99044.00;;;19.34;51.65
7962;BME280;4026;43.652;24.906;2023-03-21T07:52:47;99046.13;;;20.01;51.00
7962;BME280;4026;43.652;24.906;2023-03-21T07:55:14;99044.47;;;20.54;50.79
7962;BME280;4026;43.652;24.906;2023-03-21T07:57:42;99050.97;;;21.02;49.50
7962;BME280;4026;43.652;24.906;2023-03-21T08:00:10;99052.97;;;21.00;47.37
7962;BME280;4026;43.652;24.906;2023-03-21T08:02:38;99058.13;;;21.60;49.53
7962;BME280;4026;43.652;24.906;2023-03-21T08:05:05;99059.78;;;21.82;47.98
7962;BME280;4026;43.652;24.906;2023-03-21T08:07:32;99056.63;;;22.23;46.85
7962;BME280;4026;43.652;24.906;2023-03-21T08:10:01;99059.84;;;20.93;47.62
7962;BME280;4026;43.652;24.906;2023-03-21T08:12:27;99051.75;;;20.50;49.32
7962;BME280;4026;43.652;24.906;2023-03-21T08:14:54;99053.75;;;20.25;52.21
7962;BME280;4026;43.652;24.906;2023-03-21T08:17:21;99057.91;;;20.11;52.66
7962;BME280;4026;43.652;24.906;2023-03-21T08:19:48;99064.56;;;20.75;50.09
7962;BME280;4026;43.652;24.906;2023-03-21T08:22:15;99068.50;;;20.71;50.08
7962;BME280;4026;43.652;24.906;2023-03-21T08:24:42;99067.81;;;20.77;50.66
7962;BME280;4026;43.652;24.906;2023-03-21T08:27:10;99068.84;;;20.68;51.12
7962;BME280;4026;43.652;24.906;2023-03-21T08:29:37;99059.09;;;20.01;55.11
7962;BME280;4026;43.652;24.906;2023-03-21T08:32:07;99062.25;;;19.17;55.73
7962;BME280;4026;43.652;24.906;2023-03-21T08:34:34;99061.00;;;18.89;55.28
7962;BME280;4026;43.652;24.906;2023-03-21T08:37:01;99066.03;;;18.82;55.57
7962;BME280;4026;43.652;24.906;2023-03-21T08:39:28;99059.41;;;18.80;55.77
7962;BME280;4026;43.652;24.906;2023-03-21T08:41:55;99061.97;;;18.63;55.28
7962;BME280;4026;43.652;24.906;2023-03-21T08:44:23;99057.09;;;18.44;56.27
7962;BME280;4026;43.652;24.906;2023-03-21T08:46:51;99065.03;;;18.18;57.24
7962;BME280;4026;43.652;24.906;2023-03-21T08:49:18;99062.22;;;17.95;58.12
7962;BME280;4026;43.652;24.906;2023-03-21T08:51:45;99060.28;;;17.80;59.05
7962;BME280;4026;43.652;24.906;2023-03-21T08:54:18;99066.13;;;17.99;57.16
7962;BME280;4026;43.652;24.906;2023-03-21T08:56:46;99064.66;;;17.96;58.53
7962;BME280;4026;43.652;24.906;2023-03-21T08:59:13;99068.06;;;17.97;56.73
7962;BME280;4026;43.652;24.906;2023-03-21T09:01:41;99082.00;;;17.27;58.91
7962;BME280;4026;43.652;24.906;2023-03-21T09:04:09;99081.47;;;16.89;59.26
7962;BME280;4026;43.652;24.906;2023-03-21T09:06:36;99080.03;;;16.95;60.40
7962;BME280;4026;43.652;24.906;2023-03-21T09:09:05;99075.94;;;17.10;58.96
7962;BME280;4026;43.652;24.906;2023-03-21T09:11:33;99077.06;;;17.08;61.40
7962;BME280;4026;43.652;24.906;2023-03-21T09:14:00;99071.41;;;17.38;60.25
7962;BME280;4026;43.652;24.906;2023-03-21T09:16:27;99069.88;;;17.28;60.91
7962;BME280;4026;43.652;24.906;2023-03-21T09:18:56;99063.84;;;17.11;63.82
7962;BME280;4026;43.652;24.906;2023-03-21T09:21:24;99059.22;;;17.23;63.07
7962;BME280;4026;43.652;24.906;2023-03-21T09:23:52;99054.13;;;17.05;64.28
7962;BME280;4026;43.652;24.906;2023-03-21T09:26:22;99058.69;;;17.11;63.68
7962;BME280;4026;43.652;24.906;2023-03-21T09:28:49;99059.38;;;16.95;64.42
7962;BME280;4026;43.652;24.906;2023-03-21T09:31:17;99057.13;;;16.74;66.48
7962;BME280;4026;43.652;24.906;2023-03-21T09:33:47;99053.16;;;16.62;65.61
7962;BME280;4026;43.652;24.906;2023-03-21T09:36:16;99052.13;;;16.55;67.09
7962;BME280;4026;43.652;24.906;2023-03-21T09:38:46;99044.19;;;16.30;68.12
7962;BME280;4026;43.652;24.906;2023-03-21T09:41:23;99049.50;;;16.46;68.61
7962;BME280;4026;43.652;24.906;2023-03-21T09:44:02;99050.03;;;16.32;69.92
7962;BME280;4026;43.652;24.906;2023-03-21T09:46:35;99049.22;;;16.14;69.81
7962;BME280;4026;43.652;24.906;2023-03-21T09:49:10;99046.69;;;15.86;70.63
7962;BME280;4026;43.652;24.906;2023-03-21T09:51:44;99040.78;;;15.76;70.92
7962;BME280;4026;43.652;24.906;2023-03-21T09:54:17;99040.94;;;15.65;71.99
7962;BME280;4026;43.652;24.906;2023-03-21T09:56:44;99035.34;;;15.51;71.87
7962;BME280;4026;43.652;24.906;2023-03-21T09:59:20;99033.41;;;15.26;72.79
7962;BME280;4026;43.652;24.906;2023-03-21T10:01:48;99031.78;;;15.25;73.19
7962;BME280;4026;43.652;24.906;2023-03-21T10:04:15;99027.78;;;15.40;73.66
7962;BME280;4026;43.652;24.906;2023-03-21T10:06:52;99033.56;;;15.24;72.80
7962;BME280;4026;43.652;24.906;2023-03-21T10:09:21;99027.63;;;15.42;72.54
7962;BME280;4026;43.652;24.906;2023-03-21T10:11:52;99028.38;;;14.97;76.05
7962;BME280;4026;43.652;24.906;2023-03-21T10:14:22;99013.03;;;15.32;77.14
7962;BME280;4026;43.652;24.906;2023-03-21T10:16:54;99014.28;;;14.91;76.78
7962;BME280;4026;43.652;24.906;2023-03-21T10:19:23;99014.59;;;14.68;76.03
7962;BME280;4026;43.652;24.906;2023-03-21T10:21:51;99013.25;;;14.74;75.47
7962;BME280;4026;43.652;24.906;2023-03-21T10:24:20;99009.47;;;14.68;74.89
7962;BME280;4026;43.652;24.906;2023-03-21T10:26:49;99004.97;;;14.80;75.51
7962;BME280;4026;43.652;24.906;2023-03-21T10:29:18;99011.94;;;14.60;74.67
7962;BME280;4026;43.652;24.906;2023-03-21T10:31:48;99007.53;;;14.90;76.05
7962;BME280;4026;43.652;24.906;2023-03-21T10:34:19;99011.44;;;14.94;75.63
7962;BME280;4026;43.652;24.906;2023-03-21T10:36:52;99013.97;;;15.04;75.22
7962;BME280;4026;43.652;24.906;2023-03-21T10:39:24;99021.81;;;15.12;75.21
7962;BME280;4026;43.652;24.906;2023-03-21T10:41:52;99020.88;;;15.03;76.47
7962;BME280;4026;43.652;24.906;2023-03-21T10:44:20;99012.69;;;14.90;77.12
7962;BME280;4026;43.652;24.906;2023-03-21T10:46:51;99015.81;;;14.84;73.43
7962;BME280;4026;43.652;24.906;2023-03-21T10:49:18;99002.91;;;14.93;75.23
7962;BME280;4026;43.652;24.906;2023-03-21T10:51:48;99007.03;;;15.14;74.96
7962;BME280;4026;43.652;24.906;2023-03-21T10:54:20;98997.00;;;15.38;71.56
7962;BME280;4026;43.652;24.906;2023-03-21T10:56:56;98987.91;;;15.16;71.92
7962;BME280;4026;43.652;24.906;2023-03-21T10:59:25;98989.38;;;15.47;73.60
7962;BME280;4026;43.652;24.906;2023-03-21T11:01:55;98988.78;;;15.53;72.60
7962;BME280;4026;43.652;24.906;2023-03-21T11:04:25;98990.19;;;15.75;72.88
7962;BME280;4026;43.652;24.906;2023-03-21T11:06:54;98993.19;;;15.88;71.48
7962;BME280;4026;43.652;24.906;2023-03-21T11:09:24;98985.84;;;15.93;69.81
7962;BME280;4026;43.652;24.906;2023-03-21T11:11:55;98990.09;;;16.02;70.29
7962;BME280;4026;43.652;24.906;2023-03-21T11:14:34;98999.38;;;16.31;67.66
7962;BME280;4026;43.652;24.906;2023-03-21T11:17:12;99002.09;;;16.47;67.13
7962;BME280;4026;43.652;24.906;2023-03-21T11:19:46;98992.47;;;16.14;66.04
7962;BME280;4026;43.652;24.906;2023-03-21T11:22:14;98995.09;;;16.40;67.26
7962;BME280;4026;43.652;24.906;2023-03-21T11:24:47;98987.31;;;16.58;62.95
7962;BME280;4026;43.652;24.906;2023-03-21T11:27:15;98977.28;;;16.55;65.52
7962;BME280;4026;43.652;24.906;2023-03-21T11:29:45;98977.53;;;16.43;63.57
7962;BME280;4026;43.652;24.906;2023-03-21T11:32:20;98958.81;;;16.93;66.19
7962;BME280;4026;43.652;24.906;2023-03-21T11:34:49;98959.56;;;17.20;64.43
7962;BME280;4026;43.652;24.906;2023-03-21T11:37:20;98965.78;;;17.43;62.77
7962;BME280;4026;43.652;24.906;2023-03-21T11:39:56;98958.72;;;17.70;60.87
7962;BME280;4026;43.652;24.906;2023-03-21T11:42:27;98961.69;;;18.16;59.37
7962;BME280;4026;43.652;24.906;2023-03-21T11:45:08;98961.16;;;18.53;58.17
7962;BME280;4026;43.652;24.906;2023-03-21T11:47:36;98964.56;;;18.54;54.96
7962;BME280;4026;43.652;24.906;2023-03-21T11:50:14;98964.22;;;18.57;54.02
7962;BME280;4026;43.652;24.906;2023-03-21T11:52:45;98964.03;;;18.83;55.89
7962;BME280;4026;43.652;24.906;2023-03-21T11:55:25;98958.25;;;18.40;55.69
7962;BME280;4026;43.652;24.906;2023-03-21T11:58:04;98953.28;;;18.14;56.71
7962;BME280;4026;43.652;24.906;2023-03-21T12:00:43;98956.38;;;18.09;54.27
7962;BME280;4026;43.652;24.906;2023-03-21T12:06:12;98950.00;;;17.63;56.25
7962;BME280;4026;43.652;24.906;2023-03-21T12:08:47;98943.25;;;17.86;55.27
7962;BME280;4026;43.652;24.906;2023-03-21T12:11:27;98935.97;;;17.90;55.95
7962;BME280;4026;43.652;24.906;2023-03-21T12:14:05;98933.88;;;18.02;55.85
7962;BME280;4026;43.652;24.906;2023-03-21T12:16:45;98924.84;;;17.90;56.25
7962;BME280;4026;43.652;24.906;2023-03-21T12:19:36;98927.88;;;17.69;56.05
7962;BME280;4026;43.652;24.906;2023-03-21T12:22:11;98924.16;;;17.63;58.48
7962;BME280;4026;43.652;24.906;2023-03-21T12:24:46;98922.41;;;17.13;58.93
7962;BME280;4026;43.652;24.906;2023-03-21T12:27:24;98911.38;;;16.94;60.44
7962;BME280;4026;43.652;24.906;2023-03-21T12:30:03;98915.28;;;17.07;61.23
7962;BME280;4026;43.652;24.906;2023-03-21T12:32:46;98921.72;;;17.03;60.73
7962;BME280;4026;43.652;24.906;2023-03-21T12:35:27;98931.31;;;16.76;62.24
7962;BME280;4026;43.652;24.906;2023-03-21T12:38:05;98928.97;;;16.65;63.52
7962;BME280;4026;43.652;24.906;2023-03-21T12:40:50;98922.28;;;16.54;66.07
7962;BME280;4026;43.652;24.906;2023-03-21T12:43:40;98920.53;;;16.89;66.16
7962;BME280;4026;43.652;24.906;2023-03-21T12:46:12;98910.03;;;16.82;62.58
7962;BME280;4026;43.652;24.906;2023-03-21T12:48:44;98912.84;;;16.71;63.06
7962;BME280;4026;43.652;24.906;2023-03-21T12:51:15;98909.84;;;16.49;65.93
7962;BME280;4026;43.652;24.906;2023-03-21T12:53:56;98897.56;;;16.51;65.13
7962;BME280;4026;43.652;24.906;2023-03-21T12:56:29;98904.72;;;16.58;64.85
7962;BME280;4026;43.652;24.906;2023-03-21T12:59:03;98891.59;;;16.77;62.92
7962;BME280;4026;43.652;24.906;2023-03-21T13:01:33;98896.25;;;16.73;65.31
7962;BME280;4026;43.652;24.906;2023-03-21T13:04:11;98901.81;;;16.61;64.79
7962;BME280;4026;43.652;24.906;2023-03-21T13:06:47;98903.81;;;16.75;65.03
7962;BME280;4026;43.652;24.906;2023-03-21T13:09:19;98898.28;;;16.88;65.30
7962;BME280;4026;43.652;24.906;2023-03-21T13:11:51;98890.75;;;17.03;65.65
7962;BME280;4026;43.652;24.906;2023-03-21T13:14:24;98896.63;;;16.87;64.53
7962;BME280;4026;43.652;24.906;2023-03-21T13:16:55;98902.84;;;17.02;66.01
7962;BME280;4026;43.652;24.906;2023-03-21T13:19:27;98899.53;;;16.49;62.91
7962;BME280;4026;43.652;24.906;2023-03-21T13:22:02;98890.03;;;16.24;64.98
7962;BME280;4026;43.652;24.906;2023-03-21T13:24:37;98890.00;;;16.50;66.46
7962;BME280;4026;43.652;24.906;2023-03-21T13:27:20;98888.53;;;16.47;67.35
7962;BME280;4026;43.652;24.906;2023-03-21T13:29:52;98889.63;;;16.71;66.32
7962;BME280;4026;43.652;24.906;2023-03-21T13:32:25;98887.03;;;16.71;68.38
7962;BME280;4026;43.652;24.906;2023-03-21T13:34:54;98890.69;;;16.60;67.92
7962;BME280;4026;43.652;24.906;2023-03-21T13:37:24;98879.94;;;16.73;66.90
7962;BME280;4026;43.652;24.906;2023-03-21T13:39:59;98871.50;;;16.63;68.93
7962;BME280;4026;43.652;24.906;2023-03-21T13:42:31;98880.19;;;16.88;64.09